sensor_id;sensor_type;location;lat;lon;timestamp;temperature;humidity
22526;DHT22;11429;50.842;4.386;2023-10-31T00:01:32;12.00;99.90
22526;DHT22;11429;50.842;4.386;2023-10-31T00:03:58;12.00;99.90
22526;DHT22;11429;50.842;4.386;2023-10-31T00:06:23;12.00;99.90
22526;DHT22;11429;50.842;4.386;2023-10-31T00:08:49;11.80;99.90
22526;DHT22;11429;50.842;4.386;2023-10-31T00:11:14;11.80;99.90
22526;DHT22;11429;50.842;4.386;2023-10-31T00:13:41;11.90;99.90
22526;DHT22;11429;50.842;4.386;2023-10-31T00:16:07;11.90;99.90
22526;DHT22;11429;50.842;4.386;2023-10-31T00:18:33;11.90;99.90
22526;DHT22;11429;50.842;4.386;2023-10-31T00:20:58;11.90;99.90
22526;DHT22;11429;50.842;4.386;2023-10-31T00:23:24;11.80;99.90
22526;DHT22;11429;50.842;4.386;2023-10-31T00:25:50;11.70;99.90
22526;DHT22;11429;50.842;4.386;2023-10-31T00:28:15;11.60;99.90
22526;DHT22;11429;50.842;4.386;2023-10-31T00:30:41;11.60;99.90
22526;DHT22;11429;50.842;4.386;2023-10-31T00:33:06;11.60;99.90
22526;DHT22;11429;50.842;4.386;2023-10-31T00:35:32;11.70;99.90
22526;DHT22;11429;50.842;4.386;2023-10-31T00:37:58;11.60;99.90
22526;DHT22;11429;50.842;4.386;2023-10-31T00:40:23;11.70;99.90
22526;DHT22;11429;50.842;4.386;2023-10-31T00:42:49;11.80;99.90
22526;DHT22;11429;50.842;4.386;2023-10-31T00:45:15;11.80;99.90
22526;DHT22;11429;50.842;4.386;2023-10-31T00:47:40;11.80;99.90
22526;DHT22;11429;50.842;4.386;2023-10-31T00:50:06;11.80;99.90
22526;DHT22;11429;50.842;4.386;2023-10-31T00:52:33;11.70;99.90
22526;DHT22;11429;50.842;4.386;2023-10-31T00:54:59;11.60;99.90
22526;DHT22;11429;50.842;4.386;2023-10-31T00:57:24;11.60;99.90
22526;DHT22;11429;50.842;4.386;2023-10-31T00:59:50;11.70;99.90
22526;DHT22;11429;50.842;4.386;2023-10-31T01:02:16;11.80;99.90
22526;DHT22;11429;50.842;4.386;2023-10-31T01:04:41;11.90;99.90
22526;DHT22;11429;50.842;4.386;2023-10-31T01:07:07;11.80;99.90
22526;DHT22;11429;50.842;4.386;2023-10-31T01:09:37;11.80;99.90
22526;DHT22;11429;50.842;4.386;2023-10-31T01:12:03;11.80;99.90
22526;DHT22;11429;50.842;4.386;2023-10-31T01:14:29;11.90;99.90
22526;DHT22;11429;50.842;4.386;2023-10-31T01:16:54;11.90;99.90
22526;DHT22;11429;50.842;4.386;2023-10-31T01:19:20;11.90;99.90
22526;DHT22;11429;50.842;4.386;2023-10-31T01:21:46;11.90;99.90
22526;DHT22;11429;50.842;4.386;2023-10-31T01:24:11;11.70;99.90
22526;DHT22;11429;50.842;4.386;2023-10-31T01:26:37;11.70;99.90
22526;DHT22;11429;50.842;4.386;2023-10-31T01:29:02;11.70;99.90
22526;DHT22;11429;50.842;4.386;2023-10-31T01:31:28;11.70;99.90
22526;DHT22;11429;50.842;4.386;2023-10-31T01:33:54;11.70;99.90
22526;DHT22;11429;50.842;4.386;2023-10-31T01:36:25;11.70;99.90
22526;DHT22;11429;50.842;4.386;2023-10-31T01:38:50;11.60;99.90
22526;DHT22;11429;50.842;4.386;2023-10-31T01:41:16;11.80;99.90
22526;DHT22;11429;50.842;4.386;2023-10-31T01:43:42;11.80;99.90
22526;DHT22;11429;50.842;4.386;2023-10-31T01:46:07;11.60;99.90
22526;DHT22;11429;50.842;4.386;2023-10-31T01:48:34;11.60;99.90
22526;DHT22;11429;50.842;4.386;2023-10-31T01:51:02;11.50;99.90
22526;DHT22;11429;50.842;4.386;2023-10-31T01:53:30;11.40;99.90
22526;DHT22;11429;50.842;4.386;2023-10-31T01:55:59;11.40;99.90
22526;DHT22;11429;50.842;4.386;2023-10-31T01:58:31;11.20;99.90
22526;DHT22;11429;50.842;4.386;2023-10-31T02:00:57;11.30;99.90
22526;DHT22;11429;50.842;4.386;2023-10-31T02:03:24;11.30;99.90
22526;DHT22;11429;50.842;4.386;2023-10-31T02:05:51;11.40;99.90
22526;DHT22;11429;50.842;4.386;2023-10-31T02:08:17;11.40;99.90
22526;DHT22;11429;50.842;4.386;2023-10-31T02:10:43;11.50;99.90
22526;DHT22;11429;50.842;4.386;2023-10-31T02:13:16;11.50;99.90
22526;DHT22;11429;50.842;4.386;2023-10-31T02:15:42;11.60;99.90
22526;DHT22;11429;50.842;4.386;2023-10-31T02:18:08;11.60;99.90
22526;DHT22;11429;50.842;4.386;2023-10-31T02:20:35;11.80;99.90
22526;DHT22;11429;50.842;4.386;2023-10-31T02:23:01;11.60;99.90
22526;DHT22;11429;50.842;4.386;2023-10-31T02:25:27;11.70;99.90
22526;DHT22;11429;50.842;4.386;2023-10-31T02:27:53;11.70;99.90
22526;DHT22;11429;50.842;4.386;2023-10-31T02:30:19;11.70;99.90
22526;DHT22;11429;50.842;4.386;2023-10-31T02:32:44;11.60;99.90
22526;DHT22;11429;50.842;4.386;2023-10-31T02:35:10;11.60;99.90
22526;DHT22;11429;50.842;4.386;2023-10-31T02:37:36;11.50;99.90
22526;DHT22;11429;50.842;4.386;2023-10-31T02:40:02;11.50;99.90
22526;DHT22;11429;50.842;4.386;2023-10-31T02:42:28;11.50;99.90
22526;DHT22;11429;50.842;4.386;2023-10-31T02:44:54;11.50;99.90
22526;DHT22;11429;50.842;4.386;2023-10-31T02:47:20;11.40;99.90
22526;DHT22;11429;50.842;4.386;2023-10-31T02:49:45;11.40;99.90
22526;DHT22;11429;50.842;4.386;2023-10-31T02:52:11;11.30;99.90
22526;DHT22;11429;50.842;4.386;2023-10-31T02:54:37;11.20;99.90
22526;DHT22;11429;50.842;4.386;2023-10-31T02:57:03;11.20;99.90
22526;DHT22;11429;50.842;4.386;2023-10-31T02:59:29;11.20;99.90
22526;DHT22;11429;50.842;4.386;2023-10-31T03:01:56;11.30;99.90
22526;DHT22;11429;50.842;4.386;2023-10-31T03:04:23;11.30;99.90
22526;DHT22;11429;50.842;4.386;2023-10-31T03:06:48;11.30;99.90
22526;DHT22;11429;50.842;4.386;2023-10-31T03:09:14;11.40;99.90
22526;DHT22;11429;50.842;4.386;2023-10-31T03:11:40;11.40;99.90
22526;DHT22;11429;50.842;4.386;2023-10-31T03:14:05;11.50;99.90
22526;DHT22;11429;50.842;4.386;2023-10-31T03:16:31;11.50;99.90
22526;DHT22;11429;50.842;4.386;2023-10-31T03:18:58;11.40;99.90
22526;DHT22;11429;50.842;4.386;2023-10-31T03:21:24;11.60;99.90
22526;DHT22;11429;50.842;4.386;2023-10-31T03:23:50;11.50;99.90
22526;DHT22;11429;50.842;4.386;2023-10-31T03:26:16;11.40;99.90
22526;DHT22;11429;50.842;4.386;2023-10-31T03:28:43;11.30;99.90
22526;DHT22;11429;50.842;4.386;2023-10-31T03:31:10;11.20;99.90
22526;DHT22;11429;50.842;4.386;2023-10-31T03:33:36;11.30;99.90
22526;DHT22;11429;50.842;4.386;2023-10-31T03:36:02;11.10;99.90
22526;DHT22;11429;50.842;4.386;2023-10-31T03:38:28;11.00;99.90
22526;DHT22;11429;50.842;4.386;2023-10-31T03:40:54;11.00;99.90
22526;DHT22;11429;50.842;4.386;2023-10-31T03:43:19;11.10;99.90
22526;DHT22;11429;50.842;4.386;2023-10-31T03:45:48;11.00;99.90
22526;DHT22;11429;50.842;4.386;2023-10-31T03:48:15;11.00;99.90
22526;DHT22;11429;50.842;4.386;2023-10-31T03:50:41;11.00;99.90
22526;DHT22;11429;50.842;4.386;2023-10-31T03:53:07;11.10;99.90
22526;DHT22;11429;50.842;4.386;2023-10-31T03:55:33;11.10;99.90
22526;DHT22;11429;50.842;4.386;2023-10-31T03:57:58;10.90;99.90
22526;DHT22;11429;50.842;4.386;2023-10-31T04:00:25;11.10;99.90
22526;DHT22;11429;50.842;4.386;2023-10-31T04:02:50;11.10;99.90
22526;DHT22;11429;50.842;4.386;2023-10-31T04:05:16;11.30;99.90
22526;DHT22;11429;50.842;4.386;2023-10-31T04:07:42;11.40;99.90
22526;DHT22;11429;50.842;4.386;2023-10-31T04:10:09;11.40;99.90
22526;DHT22;11429;50.842;4.386;2023-10-31T04:12:35;11.60;99.90
22526;DHT22;11429;50.842;4.386;2023-10-31T04:15:01;11.50;99.90
22526;DHT22;11429;50.842;4.386;2023-10-31T04:17:27;11.40;99.90
22526;DHT22;11429;50.842;4.386;2023-10-31T04:19:52;11.30;99.90
22526;DHT22;11429;50.842;4.386;2023-10-31T04:22:18;11.40;99.90
22526;DHT22;11429;50.842;4.386;2023-10-31T04:24:44;11.70;99.90
22526;DHT22;11429;50.842;4.386;2023-10-31T04:27:09;11.50;99.90
22526;DHT22;11429;50.842;4.386;2023-10-31T04:29:35;11.30;99.90
22526;DHT22;11429;50.842;4.386;2023-10-31T04:32:00;11.30;99.90
22526;DHT22;11429;50.842;4.386;2023-10-31T04:34:26;11.20;99.90
22526;DHT22;11429;50.842;4.386;2023-10-31T04:36:52;11.10;99.90
22526;DHT22;11429;50.842;4.386;2023-10-31T04:39:17;11.20;99.90
22526;DHT22;11429;50.842;4.386;2023-10-31T04:41:43;11.20;99.90
22526;DHT22;11429;50.842;4.386;2023-10-31T04:44:09;11.30;99.90
22526;DHT22;11429;50.842;4.386;2023-10-31T04:46:34;11.30;99.90
22526;DHT22;11429;50.842;4.386;2023-10-31T04:49:00;11.10;99.90
22526;DHT22;11429;50.842;4.386;2023-10-31T04:51:26;11.10;99.90
22526;DHT22;11429;50.842;4.386;2023-10-31T04:53:51;11.10;99.90
22526;DHT22;11429;50.842;4.386;2023-10-31T04:56:17;11.10;99.90
22526;DHT22;11429;50.842;4.386;2023-10-31T04:58:43;11.20;99.90
22526;DHT22;11429;50.842;4.386;2023-10-31T05:01:13;11.30;99.90
22526;DHT22;11429;50.842;4.386;2023-10-31T05:03:39;11.20;99.90
22526;DHT22;11429;50.842;4.386;2023-10-31T05:06:05;11.30;99.90
22526;DHT22;11429;50.842;4.386;2023-10-31T05:08:31;11.40;99.90
22526;DHT22;11429;50.842;4.386;2023-10-31T05:10:58;11.30;99.90
22526;DHT22;11429;50.842;4.386;2023-10-31T05:13:24;11.30;99.90
22526;DHT22;11429;50.842;4.386;2023-10-31T05:15:50;11.40;99.90
22526;DHT22;11429;50.842;4.386;2023-10-31T05:18:17;11.40;99.90
22526;DHT22;11429;50.842;4.386;2023-10-31T05:20:42;11.50;99.90
22526;DHT22;11429;50.842;4.386;2023-10-31T05:23:08;11.50;99.90
22526;DHT22;11429;50.842;4.386;2023-10-31T05:25:34;11.60;99.90
22526;DHT22;11429;50.842;4.386;2023-10-31T05:28:00;11.50;99.90
22526;DHT22;11429;50.842;4.386;2023-10-31T05:30:26;11.60;99.90
22526;DHT22;11429;50.842;4.386;2023-10-31T05:32:52;11.80;99.90
22526;DHT22;11429;50.842;4.386;2023-10-31T05:35:18;11.70;99.90
22526;DHT22;11429;50.842;4.386;2023-10-31T05:37:45;11.60;99.90
22526;DHT22;11429;50.842;4.386;2023-10-31T05:40:12;11.60;99.90
22526;DHT22;11429;50.842;4.386;2023-10-31T05:42:38;11.50;99.90
22526;DHT22;11429;50.842;4.386;2023-10-31T05:45:04;11.50;99.90
22526;DHT22;11429;50.842;4.386;2023-10-31T05:47:30;11.50;99.90
22526;DHT22;11429;50.842;4.386;2023-10-31T05:49:56;11.50;99.90
22526;DHT22;11429;50.842;4.386;2023-10-31T05:52:23;11.60;99.90
22526;DHT22;11429;50.842;4.386;2023-10-31T05:54:48;11.70;99.90
22526;DHT22;11429;50.842;4.386;2023-10-31T05:57:14;11.60;99.90
22526;DHT22;11429;50.842;4.386;2023-10-31T05:59:40;11.60;99.90
22526;DHT22;11429;50.842;4.386;2023-10-31T06:02:05;11.60;99.90
22526;DHT22;11429;50.842;4.386;2023-10-31T06:04:31;11.60;99.90
22526;DHT22;11429;50.842;4.386;2023-10-31T06:06:56;11.60;99.90
22526;DHT22;11429;50.842;4.386;2023-10-31T06:09:22;11.70;99.90
22526;DHT22;11429;50.842;4.386;2023-10-31T06:11:48;11.70;99.90
22526;DHT22;11429;50.842;4.386;2023-10-31T06:14:13;11.60;99.90
22526;DHT22;11429;50.842;4.386;2023-10-31T06:16:45;11.60;99.90
22526;DHT22;11429;50.842;4.386;2023-10-31T06:19:11;11.70;99.90
22526;DHT22;11429;50.842;4.386;2023-10-31T06:21:37;11.80;99.90
22526;DHT22;11429;50.842;4.386;2023-10-31T06:24:03;12.00;99.90
22526;DHT22;11429;50.842;4.386;2023-10-31T06:26:29;11.90;99.90
22526;DHT22;11429;50.842;4.386;2023-10-31T06:28:55;11.70;99.90
22526;DHT22;11429;50.842;4.386;2023-10-31T06:31:21;11.60;99.90
22526;DHT22;11429;50.842;4.386;2023-10-31T06:33:46;11.40;99.90
22526;DHT22;11429;50.842;4.386;2023-10-31T06:36:12;11.40;99.90
22526;DHT22;11429;50.842;4.386;2023-10-31T06:38:38;11.60;99.90
22526;DHT22;11429;50.842;4.386;2023-10-31T06:41:04;11.40;99.90
22526;DHT22;11429;50.842;4.386;2023-10-31T06:43:29;11.30;99.90
22526;DHT22;11429;50.842;4.386;2023-10-31T06:45:55;11.40;99.90
22526;DHT22;11429;50.842;4.386;2023-10-31T06:48:22;11.40;99.90
22526;DHT22;11429;50.842;4.386;2023-10-31T06:50:48;11.40;99.90
22526;DHT22;11429;50.842;4.386;2023-10-31T06:53:14;11.20;99.90
22526;DHT22;11429;50.842;4.386;2023-10-31T06:55:39;11.20;99.90
22526;DHT22;11429;50.842;4.386;2023-10-31T06:58:05;11.40;99.90
22526;DHT22;11429;50.842;4.386;2023-10-31T07:00:31;11.40;99.90
22526;DHT22;11429;50.842;4.386;2023-10-31T07:02:56;11.40;99.90
22526;DHT22;11429;50.842;4.386;2023-10-31T07:05:24;11.50;99.90
22526;DHT22;11429;50.842;4.386;2023-10-31T07:07:51;11.60;99.90
22526;DHT22;11429;50.842;4.386;2023-10-31T07:10:16;11.50;99.90
22526;DHT22;11429;50.842;4.386;2023-10-31T07:12:42;11.40;99.90
22526;DHT22;11429;50.842;4.386;2023-10-31T07:15:08;11.40;99.90
22526;DHT22;11429;50.842;4.386;2023-10-31T07:17:34;11.50;99.90
22526;DHT22;11429;50.842;4.386;2023-10-31T07:19:59;11.40;99.90
22526;DHT22;11429;50.842;4.386;2023-10-31T07:22:25;11.40;99.90
22526;DHT22;11429;50.842;4.386;2023-10-31T07:24:51;11.60;99.90
22526;DHT22;11429;50.842;4.386;2023-10-31T07:27:17;11.70;99.90
22526;DHT22;11429;50.842;4.386;2023-10-31T07:29:43;11.70;99.90
22526;DHT22;11429;50.842;4.386;2023-10-31T07:32:10;11.70;99.90
22526;DHT22;11429;50.842;4.386;2023-10-31T07:34:35;11.60;99.90
22526;DHT22;11429;50.842;4.386;2023-10-31T07:37:01;11.60;99.90
22526;DHT22;11429;50.842;4.386;2023-10-31T07:39:27;11.80;99.90
22526;DHT22;11429;50.842;4.386;2023-10-31T07:41:53;11.70;99.90
22526;DHT22;11429;50.842;4.386;2023-10-31T07:44:19;11.90;99.90
22526;DHT22;11429;50.842;4.386;2023-10-31T07:46:44;12.10;99.90
22526;DHT22;11429;50.842;4.386;2023-10-31T07:49:10;12.40;99.90
22526;DHT22;11429;50.842;4.386;2023-10-31T07:51:36;12.60;99.90
22526;DHT22;11429;50.842;4.386;2023-10-31T07:54:01;12.60;99.90
22526;DHT22;11429;50.842;4.386;2023-10-31T07:56:27;12.40;99.90
22526;DHT22;11429;50.842;4.386;2023-10-31T07:58:53;12.10;99.90
22526;DHT22;11429;50.842;4.386;2023-10-31T08:01:20;11.90;99.90
22526;DHT22;11429;50.842;4.386;2023-10-31T08:03:47;11.70;99.90
22526;DHT22;11429;50.842;4.386;2023-10-31T08:06:13;11.70;99.90
22526;DHT22;11429;50.842;4.386;2023-10-31T08:08:38;11.70;99.90
22526;DHT22;11429;50.842;4.386;2023-10-31T08:11:08;11.80;99.90
22526;DHT22;11429;50.842;4.386;2023-10-31T08:13:33;11.80;99.90
22526;DHT22;11429;50.842;4.386;2023-10-31T08:15:59;11.90;99.90
22526;DHT22;11429;50.842;4.386;2023-10-31T08:18:25;12.10;99.90
22526;DHT22;11429;50.842;4.386;2023-10-31T08:20:50;12.20;99.90
22526;DHT22;11429;50.842;4.386;2023-10-31T08:23:17;12.20;99.90
22526;DHT22;11429;50.842;4.386;2023-10-31T08:25:43;12.20;99.90
22526;DHT22;11429;50.842;4.386;2023-10-31T08:28:09;12.50;99.90
22526;DHT22;11429;50.842;4.386;2023-10-31T08:30:35;12.30;99.90
22526;DHT22;11429;50.842;4.386;2023-10-31T08:33:01;12.40;99.90
22526;DHT22;11429;50.842;4.386;2023-10-31T08:35:26;12.30;99.90
22526;DHT22;11429;50.842;4.386;2023-10-31T08:37:53;12.10;99.90
22526;DHT22;11429;50.842;4.386;2023-10-31T08:40:19;12.00;99.90
22526;DHT22;11429;50.842;4.386;2023-10-31T08:42:45;11.90;99.90
22526;DHT22;11429;50.842;4.386;2023-10-31T08:45:11;12.20;99.90
22526;DHT22;11429;50.842;4.386;2023-10-31T08:47:36;12.30;99.90
22526;DHT22;11429;50.842;4.386;2023-10-31T08:50:02;12.20;99.90
22526;DHT22;11429;50.842;4.386;2023-10-31T08:52:28;12.40;99.90
22526;DHT22;11429;50.842;4.386;2023-10-31T08:54:54;12.40;99.90
22526;DHT22;11429;50.842;4.386;2023-10-31T08:57:19;12.80;99.90
22526;DHT22;11429;50.842;4.386;2023-10-31T08:59:45;12.70;99.90
22526;DHT22;11429;50.842;4.386;2023-10-31T09:02:10;12.70;99.90
22526;DHT22;11429;50.842;4.386;2023-10-31T09:04:36;12.90;99.90
22526;DHT22;11429;50.842;4.386;2023-10-31T09:07:02;13.30;99.90
22526;DHT22;11429;50.842;4.386;2023-10-31T09:09:27;13.50;99.90
22526;DHT22;11429;50.842;4.386;2023-10-31T09:11:53;14.00;99.90
22526;DHT22;11429;50.842;4.386;2023-10-31T09:14:19;13.80;99.90
22526;DHT22;11429;50.842;4.386;2023-10-31T09:16:45;13.60;99.90
22526;DHT22;11429;50.842;4.386;2023-10-31T09:19:10;13.50;99.90
22526;DHT22;11429;50.842;4.386;2023-10-31T09:21:36;13.40;99.90
22526;DHT22;11429;50.842;4.386;2023-10-31T09:24:02;13.50;99.90
22526;DHT22;11429;50.842;4.386;2023-10-31T09:26:28;13.70;99.90
22526;DHT22;11429;50.842;4.386;2023-10-31T09:28:54;13.70;99.90
22526;DHT22;11429;50.842;4.386;2023-10-31T09:31:20;13.80;99.90
22526;DHT22;11429;50.842;4.386;2023-10-31T09:33:46;13.80;99.90
22526;DHT22;11429;50.842;4.386;2023-10-31T09:36:12;13.40;99.90
22526;DHT22;11429;50.842;4.386;2023-10-31T09:38:39;13.00;99.90
22526;DHT22;11429;50.842;4.386;2023-10-31T09:41:05;12.90;99.90
22526;DHT22;11429;50.842;4.386;2023-10-31T09:43:31;12.80;99.90
22526;DHT22;11429;50.842;4.386;2023-10-31T09:45:57;12.70;99.90
22526;DHT22;11429;50.842;4.386;2023-10-31T09:48:23;12.70;99.90
22526;DHT22;11429;50.842;4.386;2023-10-31T09:50:49;12.90;99.90
22526;DHT22;11429;50.842;4.386;2023-10-31T09:53:16;12.80;99.90
22526;DHT22;11429;50.842;4.386;2023-10-31T09:55:46;13.00;99.90
22526;DHT22;11429;50.842;4.386;2023-10-31T09:58:12;12.90;99.90
22526;DHT22;11429;50.842;4.386;2023-10-31T10:00:38;12.70;99.90
22526;DHT22;11429;50.842;4.386;2023-10-31T10:03:07;12.90;99.90
22526;DHT22;11429;50.842;4.386;2023-10-31T10:05:36;13.00;99.90
22526;DHT22;11429;50.842;4.386;2023-10-31T10:08:04;13.20;99.90
22526;DHT22;11429;50.842;4.386;2023-10-31T10:10:30;13.30;99.90
22526;DHT22;11429;50.842;4.386;2023-10-31T10:12:57;13.50;99.90
22526;DHT22;11429;50.842;4.386;2023-10-31T10:15:24;13.30;99.90
22526;DHT22;11429;50.842;4.386;2023-10-31T10:17:52;13.00;99.90
22526;DHT22;11429;50.842;4.386;2023-10-31T10:20:18;12.80;99.90
22526;DHT22;11429;50.842;4.386;2023-10-31T10:22:45;13.00;99.90
22526;DHT22;11429;50.842;4.386;2023-10-31T10:25:13;13.10;99.90
22526;DHT22;11429;50.842;4.386;2023-10-31T10:27:43;13.00;99.90
22526;DHT22;11429;50.842;4.386;2023-10-31T10:30:09;13.00;99.90
22526;DHT22;11429;50.842;4.386;2023-10-31T10:32:35;12.70;99.90
22526;DHT22;11429;50.842;4.386;2023-10-31T10:35:01;12.70;99.90
22526;DHT22;11429;50.842;4.386;2023-10-31T10:37:27;12.80;99.90
22526;DHT22;11429;50.842;4.386;2023-10-31T10:39:56;13.10;99.90
22526;DHT22;11429;50.842;4.386;2023-10-31T10:42:31;13.50;99.90
22526;DHT22;11429;50.842;4.386;2023-10-31T10:45:03;13.50;99.90
22526;DHT22;11429;50.842;4.386;2023-10-31T10:47:33;13.30;99.90
22526;DHT22;11429;50.842;4.386;2023-10-31T10:50:00;13.20;99.90
22526;DHT22;11429;50.842;4.386;2023-10-31T10:55:13;13.00;99.90
22526;DHT22;11429;50.842;4.386;2023-10-31T10:58:08;13.00;99.90
22526;DHT22;11429;50.842;4.386;2023-10-31T11:00:34;13.00;99.90
22526;DHT22;11429;50.842;4.386;2023-10-31T11:03:00;12.90;99.90
22526;DHT22;11429;50.842;4.386;2023-10-31T11:05:27;12.90;99.90
22526;DHT22;11429;50.842;4.386;2023-10-31T11:07:53;13.00;99.90
22526;DHT22;11429;50.842;4.386;2023-10-31T11:10:21;12.70;99.90
22526;DHT22;11429;50.842;4.386;2023-10-31T11:12:47;12.50;99.90
22526;DHT22;11429;50.842;4.386;2023-10-31T11:15:15;12.30;99.90
22526;DHT22;11429;50.842;4.386;2023-10-31T11:17:43;12.20;99.90
22526;DHT22;11429;50.842;4.386;2023-10-31T11:20:11;12.10;99.90
22526;DHT22;11429;50.842;4.386;2023-10-31T11:22:41;12.00;99.90
22526;DHT22;11429;50.842;4.386;2023-10-31T11:25:11;12.00;99.90
22526;DHT22;11429;50.842;4.386;2023-10-31T11:27:37;11.90;99.90
22526;DHT22;11429;50.842;4.386;2023-10-31T11:30:21;11.90;99.90
22526;DHT22;11429;50.842;4.386;2023-10-31T11:32:53;11.90;99.90
22526;DHT22;11429;50.842;4.386;2023-10-31T11:35:19;11.80;99.90
22526;DHT22;11429;50.842;4.386;2023-10-31T11:38:00;11.90;99.90
22526;DHT22;11429;50.842;4.386;2023-10-31T11:40:28;11.90;99.90
22526;DHT22;11429;50.842;4.386;2023-10-31T11:42:57;11.90;99.90
22526;DHT22;11429;50.842;4.386;2023-10-31T11:45:29;12.00;99.90
22526;DHT22;11429;50.842;4.386;2023-10-31T11:47:56;12.00;99.90
22526;DHT22;11429;50.842;4.386;2023-10-31T11:50:22;12.10;99.90
22526;DHT22;11429;50.842;4.386;2023-10-31T11:55:33;11.90;99.90
22526;DHT22;11429;50.842;4.386;2023-10-31T11:58:20;11.90;99.90
22526;DHT22;11429;50.842;4.386;2023-10-31T12:00:47;11.90;99.90
22526;DHT22;11429;50.842;4.386;2023-10-31T12:03:15;11.80;99.90
22526;DHT22;11429;50.842;4.386;2023-10-31T12:05:51;12.00;99.90
22526;DHT22;11429;50.842;4.386;2023-10-31T12:08:25;12.00;99.90
22526;DHT22;11429;50.842;4.386;2023-10-31T12:10:51;11.90;99.90
22526;DHT22;11429;50.842;4.386;2023-10-31T12:13:16;11.90;99.90
22526;DHT22;11429;50.842;4.386;2023-10-31T12:15:52;12.00;99.90
22526;DHT22;11429;50.842;4.386;2023-10-31T12:18:18;11.90;99.90
22526;DHT22;11429;50.842;4.386;2023-10-31T12:20:48;11.90;99.90
22526;DHT22;11429;50.842;4.386;2023-10-31T12:23:15;11.90;99.90
22526;DHT22;11429;50.842;4.386;2023-10-31T12:25:50;11.90;99.90
22526;DHT22;11429;50.842;4.386;2023-10-31T12:28:23;11.80;99.90
22526;DHT22;11429;50.842;4.386;2023-10-31T12:30:53;11.80;99.90
22526;DHT22;11429;50.842;4.386;2023-10-31T12:33:26;11.80;99.90
22526;DHT22;11429;50.842;4.386;2023-10-31T12:35:58;11.70;99.90
22526;DHT22;11429;50.842;4.386;2023-10-31T12:38:24;11.60;99.90
22526;DHT22;11429;50.842;4.386;2023-10-31T12:40:51;11.70;99.90
22526;DHT22;11429;50.842;4.386;2023-10-31T12:43:17;11.80;99.90
22526;DHT22;11429;50.842;4.386;2023-10-31T12:45:43;11.80;99.90
22526;DHT22;11429;50.842;4.386;2023-10-31T12:48:10;12.00;99.90
22526;DHT22;11429;50.842;4.386;2023-10-31T12:50:38;12.10;99.90
22526;DHT22;11429;50.842;4.386;2023-10-31T12:53:05;12.20;99.90
22526;DHT22;11429;50.842;4.386;2023-10-31T12:55:38;12.10;99.90
22526;DHT22;11429;50.842;4.386;2023-10-31T12:58:04;12.10;99.90
22526;DHT22;11429;50.842;4.386;2023-10-31T13:00:31;12.10;99.90
22526;DHT22;11429;50.842;4.386;2023-10-31T13:05:27;12.30;99.90
22526;DHT22;11429;50.842;4.386;2023-10-31T13:07:55;12.30;99.90
22526;DHT22;11429;50.842;4.386;2023-10-31T13:10:23;12.40;99.90
22526;DHT22;11429;50.842;4.386;2023-10-31T13:12:50;12.30;99.90
22526;DHT22;11429;50.842;4.386;2023-10-31T13:15:17;12.20;99.90
22526;DHT22;11429;50.842;4.386;2023-10-31T13:17:44;12.10;99.90
22526;DHT22;11429;50.842;4.386;2023-10-31T13:20:12;12.20;99.90
22526;DHT22;11429;50.842;4.386;2023-10-31T13:22:38;12.20;99.90
22526;DHT22;11429;50.842;4.386;2023-10-31T13:25:06;12.20;99.90
22526;DHT22;11429;50.842;4.386;2023-10-31T13:27:33;12.20;99.90
22526;DHT22;11429;50.842;4.386;2023-10-31T13:30:01;12.20;99.90
22526;DHT22;11429;50.842;4.386;2023-10-31T13:32:26;12.30;99.90
22526;DHT22;11429;50.842;4.386;2023-10-31T13:34:52;12.40;99.90
22526;DHT22;11429;50.842;4.386;2023-10-31T13:37:18;12.40;99.90
22526;DHT22;11429;50.842;4.386;2023-10-31T13:39:43;12.40;99.90
22526;DHT22;11429;50.842;4.386;2023-10-31T13:42:09;12.40;99.90
22526;DHT22;11429;50.842;4.386;2023-10-31T13:44:36;12.40;99.90
22526;DHT22;11429;50.842;4.386;2023-10-31T13:47:02;12.60;99.90
22526;DHT22;11429;50.842;4.386;2023-10-31T13:49:28;12.60;99.90
22526;DHT22;11429;50.842;4.386;2023-10-31T13:51:54;12.70;99.90
22526;DHT22;11429;50.842;4.386;2023-10-31T13:54:20;12.70;99.90
22526;DHT22;11429;50.842;4.386;2023-10-31T13:56:47;12.70;99.90
22526;DHT22;11429;50.842;4.386;2023-10-31T13:59:13;12.80;99.90
22526;DHT22;11429;50.842;4.386;2023-10-31T14:01:38;13.00;99.90
22526;DHT22;11429;50.842;4.386;2023-10-31T14:04:07;13.10;99.90
22526;DHT22;11429;50.842;4.386;2023-10-31T14:06:33;13.20;99.90
22526;DHT22;11429;50.842;4.386;2023-10-31T14:08:59;13.20;99.90
22526;DHT22;11429;50.842;4.386;2023-10-31T14:11:25;13.30;99.90
22526;DHT22;11429;50.842;4.386;2023-10-31T14:13:51;13.30;99.90
22526;DHT22;11429;50.842;4.386;2023-10-31T14:16:18;13.20;99.90
22526;DHT22;11429;50.842;4.386;2023-10-31T14:18:44;13.10;99.90
22526;DHT22;11429;50.842;4.386;2023-10-31T14:21:11;13.00;99.90
22526;DHT22;11429;50.842;4.386;2023-10-31T14:23:37;13.00;99.90
22526;DHT22;11429;50.842;4.386;2023-10-31T14:26:03;12.90;99.90
22526;DHT22;11429;50.842;4.386;2023-10-31T14:28:30;12.80;99.90
22526;DHT22;11429;50.842;4.386;2023-10-31T14:30:56;12.90;99.90
22526;DHT22;11429;50.842;4.386;2023-10-31T14:33:21;12.90;99.90
22526;DHT22;11429;50.842;4.386;2023-10-31T14:35:47;12.90;99.90
22526;DHT22;11429;50.842;4.386;2023-10-31T14:38:13;12.90;99.90
22526;DHT22;11429;50.842;4.386;2023-10-31T14:40:39;12.80;99.90
22526;DHT22;11429;50.842;4.386;2023-10-31T14:43:04;12.80;99.90
22526;DHT22;11429;50.842;4.386;2023-10-31T14:45:30;12.80;99.90
22526;DHT22;11429;50.842;4.386;2023-10-31T14:47:55;12.80;99.90
22526;DHT22;11429;50.842;4.386;2023-10-31T14:50:21;12.80;99.90
22526;DHT22;11429;50.842;4.386;2023-10-31T14:52:47;12.80;99.90
22526;DHT22;11429;50.842;4.386;2023-10-31T14:55:13;12.90;99.90
22526;DHT22;11429;50.842;4.386;2023-10-31T14:57:39;12.80;99.90
22526;DHT22;11429;50.842;4.386;2023-10-31T15:00:06;12.70;99.90
22526;DHT22;11429;50.842;4.386;2023-10-31T15:02:34;12.60;99.90
22526;DHT22;11429;50.842;4.386;2023-10-31T15:05:00;12.70;99.90
22526;DHT22;11429;50.842;4.386;2023-10-31T15:07:28;12.70;99.90
22526;DHT22;11429;50.842;4.386;2023-10-31T15:09:53;12.80;99.90
22526;DHT22;11429;50.842;4.386;2023-10-31T15:12:19;12.90;99.90
22526;DHT22;11429;50.842;4.386;2023-10-31T15:14:46;12.90;99.90
22526;DHT22;11429;50.842;4.386;2023-10-31T15:17:11;12.90;99.90
22526;DHT22;11429;50.842;4.386;2023-10-31T15:19:37;12.80;99.90
22526;DHT22;11429;50.842;4.386;2023-10-31T15:22:03;12.80;99.90
22526;DHT22;11429;50.842;4.386;2023-10-31T15:24:29;12.80;99.90
22526;DHT22;11429;50.842;4.386;2023-10-31T15:26:56;12.80;99.90
22526;DHT22;11429;50.842;4.386;2023-10-31T15:29:21;12.70;99.90
22526;DHT22;11429;50.842;4.386;2023-10-31T15:31:47;12.70;99.90
22526;DHT22;11429;50.842;4.386;2023-10-31T15:34:19;12.60;99.90